Time;durP1;ratioP1;P1;durP2;ratioP2;P2;SDS_P1;SDS_P2;PMS_P1;PMS_P2;Temp;Humidity;BMP_temperature;BMP_pressure;BME280_temperature;BME280_humidity;BME280_pressure;Samples;Min_cycle;Max_cycle;Signal;HPM_P1;HPM_P2
2022/09/26 00:01:31;;;;;;;7.18;3.30;;;;;;;18.67;60.27;100890.81;5091085;28;20047;-80
2022/09/26 00:04:03;;;;;;;6.05;3.10;;;;;;;18.68;60.16;100879.53;5089966;28;20050;-81
2022/09/26 00:06:31;;;;;;;8.77;3.47;;;;;;;18.68;60.15;100882.16;5091957;28;20087;-80
2022/09/26 00:08:57;;;;;;;5.88;3.17;;;;;;;18.68;60.09;100871.72;5108216;28;20031;-80
2022/09/26 00:11:27;;;;;;;5.60;2.85;;;;;;;18.68;59.92;100863.91;5091730;28;20138;-81
2022/09/26 00:13:55;;;;;;;5.03;2.83;;;;;;;18.70;59.85;100859.53;5108332;28;20119;-80
2022/09/26 00:16:21;;;;;;;5.55;2.70;;;;;;;18.71;59.90;100849.94;5109402;28;20048;-80
2022/09/26 00:21:13;;;;;;;6.03;2.90;;;;;;;18.70;59.69;100835.19;5108113;28;20063;-80
2022/09/26 00:23:40;;;;;;;4.85;2.78;;;;;;;18.68;59.81;100830.00;5085232;28;20479;-80
2022/09/26 00:26:06;;;;;;;5.07;2.50;;;;;;;18.70;59.68;100829.97;5088747;28;20520;-80
2022/09/26 00:28:31;;;;;;;5.47;2.70;;;;;;;18.70;59.90;100830.84;5110513;28;20035;-80
2022/09/26 00:31:03;;;;;;;5.40;2.88;;;;;;;18.70;59.89;100817.81;5078812;28;20048;-81
2022/09/26 00:33:31;;;;;;;4.57;2.28;;;;;;;18.71;59.77;100816.91;5091612;28;20044;-81
2022/09/26 00:35:57;;;;;;;5.43;2.90;;;;;;;18.70;59.59;100804.78;5107305;28;20051;-80
2022/09/26 00:38:22;;;;;;;4.80;2.47;;;;;;;18.70;59.81;100794.34;5074431;28;20359;-80
2022/09/26 00:40:49;;;;;;;4.55;2.72;;;;;;;18.73;59.64;100797.78;5090810;28;20044;-80
2022/09/26 00:43:45;;;;;;;3.53;2.20;;;;;;;18.74;59.47;100789.94;5074045;28;20358;-80
2022/09/26 00:46:19;;;;;;;4.78;2.53;;;;;;;18.75;59.86;100782.97;5060123;28;20504;-80
2022/09/26 00:51:12;;;;;;;4.53;2.47;;;;;;;18.72;59.81;100768.25;5098924;28;21278;-80
2022/09/26 00:53:43;;;;;;;5.15;2.60;;;;;;;18.74;60.03;100763.88;5091453;28;20497;-80
2022/09/26 00:56:33;;;;;;;4.20;2.10;;;;;;;18.73;59.55;100754.34;5088935;28;21263;-80
2022/09/26 00:59:15;;;;;;;3.90;2.40;;;;;;;18.73;59.28;100748.25;5106971;28;20039;-80
2022/09/26 01:01:41;;;;;;;5.22;2.50;;;;;;;18.75;59.27;100741.25;5110139;28;20091;-80
2022/09/26 01:04:11;;;;;;;3.67;2.15;;;;;;;18.75;59.30;100731.72;5089058;28;20707;-80
2022/09/26 01:06:36;;;;;;;3.83;2.00;;;;;;;18.74;59.54;100729.13;5090863;28;20050;-81
2022/09/26 01:09:07;;;;;;;3.85;2.10;;;;;;;18.74;59.56;100716.09;5088890;28;20039;-81
2022/09/26 01:11:35;;;;;;;4.45;2.33;;;;;;;18.74;59.31;100711.72;5094747;28;20066;-80
2022/09/26 01:14:01;;;;;;;5.07;2.10;;;;;;;18.74;59.78;100700.47;5092837;28;20051;-80
2022/09/26 01:16:27;;;;;;;3.42;2.05;;;;;;;18.74;59.31;100703.06;5094817;28;20115;-81
2022/09/26 01:18:53;;;;;;;3.55;1.90;;;;;;;18.75;59.36;100699.56;5076606;28;20054;-80
2022/09/26 01:21:40;;;;;;;4.65;2.10;;;;;;;18.74;59.57;100696.09;5061136;28;20043;-80
2022/09/26 01:24:05;;;;;;;3.40;2.00;;;;;;;18.75;59.70;100687.41;5092618;28;20152;-80
2022/09/26 01:29:12;;;;;;;3.28;1.80;;;;;;;18.75;59.27;100674.38;5102259;28;20051;-80
2022/09/26 01:34:30;;;;;;;3.50;1.95;;;;;;;18.76;59.56;100657.84;5111215;28;20066;-80
2022/09/26 01:37:18;;;;;;;3.72;2.00;;;;;;;18.76;59.58;100650.00;5110916;28;20048;-80
2022/09/26 01:42:39;;;;;;;3.22;1.77;;;;;;;18.76;59.11;100646.56;5112420;28;20048;-81
2022/09/26 01:45:19;;;;;;;3.38;1.83;;;;;;;18.76;59.11;100643.94;5094501;28;20048;-80
2022/09/26 01:50:32;;;;;;;3.65;1.88;;;;;;;18.75;59.07;100631.78;5087907;28;20043;-80
2022/09/26 01:53:08;;;;;;;3.60;1.73;;;;;;;18.77;58.92;100624.78;5094287;28;20040;-79
2022/09/26 01:55:41;;;;;;;3.80;1.90;;;;;;;18.77;58.82;100623.06;5095038;28;20116;-80
2022/09/26 01:58:22;;;;;;;3.05;1.67;;;;;;;18.76;59.09;100617.88;5081459;28;20113;-80
2022/09/26 02:00:49;;;;;;;2.88;1.70;;;;;;;18.77;58.76;100615.25;5108273;28;20444;-80
2022/09/26 02:03:20;;;;;;;4.35;1.95;;;;;;;18.78;58.94;100610.91;5092971;28;20126;-80
2022/09/26 02:08:18;;;;;;;3.80;1.75;;;;;;;18.77;59.25;100598.72;5110951;28;20767;-81
2022/09/26 02:13:26;;;;;;;3.65;1.73;;;;;;;18.77;58.88;100585.69;5113438;28;21781;-82
2022/09/26 02:15:57;;;;;;;3.60;1.48;;;;;;;18.78;58.71;100587.47;5093045;28;20051;-81
2022/09/26 02:18:30;;;;;;;4.00;2.17;;;;;;;18.76;59.50;100582.22;5115476;28;20123;-80
2022/09/26 02:21:01;;;;;;;2.83;1.60;;;;;;;18.75;58.86;100583.13;5092426;28;20074;-80
2022/09/26 02:23:27;;;;;;;2.60;1.50;;;;;;;18.76;58.68;100565.75;5050236;28;1192725;-80
2022/09/26 02:25:52;;;;;;;3.05;1.23;;;;;;;18.76;58.69;100565.75;5110257;28;20052;-81
2022/09/26 02:28:18;;;;;;;5.50;1.50;;;;;;;18.77;59.09;100563.13;5093279;28;20035;-80
2022/09/26 02:30:46;;;;;;;2.92;1.48;;;;;;;18.76;58.44;100556.16;5111360;28;20039;-80
2022/09/26 02:33:12;;;;;;;2.75;1.45;;;;;;;18.78;58.68;100551.81;5091277;28;20051;-80
2022/09/26 02:38:12;;;;;;;2.47;1.30;;;;;;;18.77;58.56;100536.16;5092453;28;20050;-80
2022/09/26 02:43:43;;;;;;;2.58;1.27;;;;;;;18.78;58.81;100530.09;5092642;28;20123;-80
2022/09/26 02:46:37;;;;;;;2.65;1.55;;;;;;;18.77;58.90;100523.13;5090944;28;20055;-81
2022/09/26 02:49:20;;;;;;;2.15;1.30;;;;;;;18.78;58.67;100519.69;5109115;28;20075;-81
2022/09/26 02:54:25;;;;;;;3.97;1.38;;;;;;;18.78;58.60;100506.66;5084357;28;20048;-79
2022/09/26 02:56:57;;;;;;;3.20;1.63;;;;;;;18.77;58.50;100503.16;5091684;28;20058;-79
2022/09/26 02:59:36;;;;;;;3.92;1.40;;;;;;;18.78;58.66;100494.47;5110856;28;20056;-79
2022/09/26 03:02:14;;;;;;;3.25;1.40;;;;;;;18.78;58.54;100481.44;5090042;28;20044;-81
2022/09/26 03:07:19;;;;;;;2.33;1.30;;;;;;;18.77;58.52;100477.09;5084259;28;20757;-80
2022/09/26 03:12:12;;;;;;;2.40;1.20;;;;;;;18.77;58.67;100455.34;5109012;28;20741;-80
2022/09/26 03:14:41;;;;;;;3.70;1.60;;;;;;;18.79;58.33;100458.81;5092605;28;20075;-81
2022/09/26 03:17:08;;;;;;;2.58;1.27;;;;;;;18.78;58.83;100444.09;5090961;28;20100;-80
2022/09/26 03:22:14;;;;;;;2.75;1.30;;;;;;;18.78;58.42;100431.06;5108256;28;21148;-80
2022/09/26 03:24:41;;;;;;;2.63;1.40;;;;;;;18.79;58.53;100431.03;5092406;28;20406;-81
2022/09/26 03:27:08;;;;;;;4.50;1.40;;;;;;;18.78;58.37;100425.84;5090357;28;20057;-81
2022/09/26 03:29:33;;;;;;;3.10;1.38;;;;;;;18.79;58.21;100418.00;5110148;28;20048;-80
2022/09/26 03:31:59;;;;;;;2.50;1.30;;;;;;;18.79;58.52;100417.13;5073012;28;20095;-79
2022/09/26 03:34:26;;;;;;;2.20;1.30;;;;;;;18.79;58.18;100409.28;5075824;28;20071;-81
2022/09/26 03:36:52;;;;;;;2.35;1.15;;;;;;;18.77;58.22;100406.72;5090977;28;20508;-81
2022/09/26 03:39:17;;;;;;;1.90;1.20;;;;;;;18.77;58.17;100398.88;5109792;28;20052;-81
2022/09/26 03:41:43;;;;;;;2.33;1.10;;;;;;;18.78;58.51;100389.34;5091982;28;20505;-80
2022/09/26 03:44:09;;;;;;;1.88;1.17;;;;;;;18.77;58.47;100385.84;5081543;28;20138;-80
2022/09/26 03:46:34;;;;;;;1.90;1.27;;;;;;;18.79;58.54;100381.50;5092303;28;20134;-80
2022/09/26 03:48:59;;;;;;;2.88;1.40;;;;;;;18.77;58.20;100372.81;5073124;28;20044;-81
2022/09/26 03:51:25;;;;;;;3.03;1.30;;;;;;;18.77;58.24;100374.53;5091877;28;20052;-81
2022/09/26 03:53:50;;;;;;;2.08;1.20;;;;;;;18.77;58.37;100365.00;5109341;28;20158;-80
2022/09/26 03:56:17;;;;;;;2.50;1.33;;;;;;;18.77;58.05;100362.41;5083521;28;20048;-81
2022/09/26 03:58:44;;;;;;;2.60;1.10;;;;;;;18.77;58.55;100351.97;5083972;28;20121;-80
2022/09/26 04:01:15;;;;;;;2.85;1.40;;;;;;;18.77;58.13;100351.97;5089764;28;20061;-80
2022/09/26 04:03:43;;;;;;;2.13;1.23;;;;;;;18.78;58.02;100345.03;5091369;28;20151;-81
2022/09/26 04:06:10;;;;;;;2.28;1.15;;;;;;;18.78;58.05;100335.44;5065022;28;20463;-81
2022/09/26 04:08:37;;;;;;;2.47;1.10;;;;;;;18.78;58.26;100337.22;5088528;28;20083;-81
2022/09/26 04:11:05;;;;;;;1.98;1.08;;;;;;;18.77;58.31;100325.03;5088553;28;20044;-80
2022/09/26 04:13:31;;;;;;;2.53;0.98;;;;;;;18.78;58.08;100319.81;5091692;28;20104;-80
2022/09/26 04:16:00;;;;;;;1.85;1.02;;;;;;;18.78;58.18;100311.13;5090386;28;20436;-89
2022/09/26 04:18:27;;;;;;;1.75;0.90;;;;;;;18.78;57.98;100305.94;5092300;28;20036;-89
2022/09/26 04:20:59;;;;;;;1.83;1.05;;;;;;;18.77;57.86;100296.34;5110287;28;20044;-88
2022/09/26 04:23:31;;;;;;;2.13;1.10;;;;;;;18.77;57.99;100299.84;5075758;28;20043;-89
2022/09/26 04:26:05;;;;;;;1.45;0.98;;;;;;;18.77;58.00;100297.22;5089781;28;20096;-89
2022/09/26 04:28:34;;;;;;;2.35;1.08;;;;;;;18.78;57.85;100298.09;5083453;28;20047;-90
2022/09/26 04:31:02;;;;;;;2.42;1.20;;;;;;;18.78;57.96;100295.50;5054504;28;20072;-89
2022/09/26 04:33:31;;;;;;;2.88;0.98;;;;;;;18.76;57.82;100277.25;5093655;28;20040;-89
2022/09/26 04:35:59;;;;;;;1.40;0.90;;;;;;;18.78;58.00;100274.66;5091108;28;20573;-89
2022/09/26 04:38:32;;;;;;;1.50;0.80;;;;;;;18.77;57.91;100263.34;5111471;28;20050;-90
2022/09/26 04:41:09;;;;;;;2.60;0.98;;;;;;;18.77;57.90;100259.84;5059627;28;20060;-90
2022/09/26 04:43:35;;;;;;;2.15;1.08;;;;;;;18.77;57.98;100258.13;5099032;28;20488;-89
2022/09/26 04:46:01;;;;;;;2.03;0.90;;;;;;;18.77;57.92;100247.69;5119169;28;20044;-88
2022/09/26 04:48:29;;;;;;;2.90;1.00;;;;;;;18.77;57.88;100247.69;5082735;28;20052;-88
2022/09/26 04:50:55;;;;;;;2.58;1.00;;;;;;;18.76;58.02;100251.19;5106256;28;20035;-87
2022/09/26 04:53:20;;;;;;;2.80;1.30;;;;;;;18.77;57.73;100242.50;5089190;28;20105;-89
2022/09/26 04:55:46;;;;;;;1.65;0.80;;;;;;;18.77;57.73;100236.41;5120439;28;20043;-88
2022/09/26 04:58:13;;;;;;;1.83;0.90;;;;;;;18.77;57.53;100229.47;5114782;28;20792;-89
2022/09/26 05:00:48;;;;;;;2.83;0.88;;;;;;;18.77;58.14;100215.53;5115318;28;20035;-89
2022/09/26 05:03:16;;;;;;;1.70;1.02;;;;;;;18.76;57.90;100208.63;5104364;28;20054;-90
2022/09/26 05:05:46;;;;;;;15.38;6.07;;;;;;;18.77;57.72;100203.38;5072114;28;20048;-87
2022/09/26 05:08:15;;;;;;;34.08;9.88;;;;;;;18.79;58.10;100195.53;5082011;28;20558;-87
2022/09/26 05:10:42;;;;;;;19.17;7.05;;;;;;;18.80;57.92;100195.50;5109867;28;20051;-90
2022/09/26 05:13:08;;;;;;;19.67;6.20;;;;;;;18.82;58.01;100195.47;5085095;28;20047;-81
2022/09/26 05:15:38;;;;;;;18.25;5.93;;;;;;;18.81;57.85;100180.72;5061906;28;20051;-82
2022/09/26 05:18:06;;;;;;;13.55;5.30;;;;;;;18.79;57.81;100172.97;5067316;28;20052;-83
2022/09/26 05:20:37;;;;;;;12.82;4.30;;;;;;;18.78;57.80;100152.13;5095417;28;20404;-86
2022/09/26 05:23:04;;;;;;;12.63;4.43;;;;;;;18.78;57.96;100145.16;5112464;28;20514;-83
2022/09/26 05:28:13;;;;;;;11.60;3.72;;;;;;;18.79;57.88;100151.22;5111546;28;20701;-86
2022/09/26 05:30:39;;;;;;;12.90;3.53;;;;;;;18.79;57.68;100146.00;5113311;28;20048;-83
2022/09/26 05:33:07;;;;;;;13.60;3.60;;;;;;;18.79;57.92;100140.81;5111571;28;20048;-82
2022/09/26 05:35:35;;;;;;;9.77;3.40;;;;;;;18.78;57.84;100136.50;5088535;28;20097;-84
2022/09/26 05:38:03;;;;;;;12.27;3.88;;;;;;;18.79;58.25;100128.66;5102116;28;20058;-88
2022/09/26 05:43:12;;;;;;;;;;;;;;;18.79;57.88;100123.44;5112872;28;20753;-86
2022/09/26 05:45:38;;;;;;;14.68;5.20;;;;;;;18.79;58.18;100115.63;5095497;28;19920;-85
2022/09/26 05:48:04;;;;;;;15.25;5.65;;;;;;;18.79;57.91;100114.75;5060256;28;20501;-87
2022/09/26 05:50:30;;;;;;;12.40;5.28;;;;;;;18.79;57.59;100109.53;5095279;28;20048;-87
2022/09/26 05:52:57;;;;;;;12.20;4.45;;;;;;;18.78;57.83;100105.22;5094359;28;20382;-88
2022/09/26 05:55:23;;;;;;;11.32;4.45;;;;;;;18.77;57.75;100096.53;5096710;28;20117;-87
2022/09/26 05:57:55;;;;;;;13.85;4.57;;;;;;;18.76;57.99;100100.00;5080069;28;20043;-88
2022/09/26 06:00:25;;;;;;;12.27;4.10;;;;;;;18.77;57.77;100101.72;5094194;28;20377;-89
2022/09/26 06:02:57;;;;;;;10.43;4.30;;;;;;;18.77;57.95;100096.53;5094108;28;20790;-87
2022/09/26 06:05:24;;;;;;;14.30;4.05;;;;;;;18.77;57.75;100096.53;5112636;28;20421;-87
2022/09/26 06:07:50;;;;;;;9.95;3.90;;;;;;;18.77;57.77;100091.31;5114187;28;20043;-86
2022/09/26 06:10:22;;;;;;;9.95;3.78;;;;;;;18.76;57.65;100079.16;5076740;28;20051;-90
2022/09/26 06:12:47;;;;;;;10.82;3.83;;;;;;;18.78;57.64;100089.59;5093934;28;20044;-87
2022/09/26 06:15:14;;;;;;;10.63;3.70;;;;;;;18.76;57.69;100084.38;5093157;28;20132;-90
2022/09/26 06:17:39;;;;;;;10.07;3.58;;;;;;;18.77;57.81;100077.41;5074960;28;20067;-90
2022/09/26 06:20:06;;;;;;;17.25;3.78;;;;;;;18.77;57.39;100067.84;5084483;28;20394;-89
2022/09/26 06:22:41;;;;;;;7.68;3.28;;;;;;;18.76;57.76;100070.50;5102623;28;20115;-88
2022/09/26 06:25:09;;;;;;;9.52;3.35;;;;;;;18.77;57.60;100067.84;5111046;28;20039;-89
2022/09/26 06:27:37;;;;;;;8.40;3.30;;;;;;;18.77;57.81;100053.94;5083029;28;20121;-90
2022/09/26 06:30:05;;;;;;;9.90;3.63;;;;;;;18.74;57.41;100043.59;5091266;28;20051;-89
2022/09/26 06:32:31;;;;;;;10.40;3.53;;;;;;;18.75;57.43;100043.56;5094630;28;20397;-88
2022/09/26 06:34:56;;;;;;;10.77;3.90;;;;;;;18.76;57.44;100034.00;5110957;28;20055;-88
2022/09/26 06:37:22;;;;;;;8.20;3.42;;;;;;;18.76;57.39;100023.56;5061318;28;20051;-89
2022/09/26 06:39:48;;;;;;;8.55;3.67;;;;;;;18.75;57.39;100017.50;5017756;28;1698523;-85
2022/09/26 06:42:16;;;;;;;11.20;3.70;;;;;;;18.76;57.60;100015.75;5092946;28;20064;-88
2022/09/26 06:44:41;;;;;;;9.93;3.58;;;;;;;18.75;57.63;100003.59;5112783;28;20112;-88
2022/09/26 06:47:07;;;;;;;8.20;3.17;;;;;;;18.75;57.55;100003.59;5110898;28;20044;-88
2022/09/26 06:49:33;;;;;;;7.95;3.22;;;;;;;18.73;57.56;100000.19;5103205;28;20098;-88
2022/09/26 06:51:59;;;;;;;8.40;3.20;;;;;;;18.75;57.58;100001.88;5092040;28;20086;-89
2022/09/26 06:54:26;;;;;;;6.97;3.40;;;;;;;18.74;57.54;99997.53;5112563;28;20036;-88
2022/09/26 06:56:51;;;;;;;9.90;3.58;;;;;;;18.74;57.60;99984.50;5092769;28;20062;-88
2022/09/26 06:59:17;;;;;;;7.55;3.13;;;;;;;18.74;57.51;99981.06;5094162;28;20130;-88
2022/09/26 07:01:44;;;;;;;7.20;3.00;;;;;;;18.74;57.45;99984.50;5087584;28;20438;-88
2022/09/26 07:04:10;;;;;;;8.55;3.08;;;;;;;18.75;57.34;99980.16;5075065;28;20094;-88
2022/09/26 07:06:37;;;;;;;8.90;3.08;;;;;;;18.74;57.54;99966.25;5094304;28;20482;-88
2022/09/26 07:09:02;;;;;;;7.95;2.80;;;;;;;18.75;57.51;99961.91;5090748;28;20051;-86
2022/09/26 07:11:28;;;;;;;6.45;3.08;;;;;;;18.75;57.44;99964.50;5076414;28;20063;-88
2022/09/26 07:13:53;;;;;;;6.18;3.25;;;;;;;18.75;57.32;99959.28;5074767;28;20184;-87
2022/09/26 07:16:19;;;;;;;8.13;2.78;;;;;;;18.75;57.45;99951.47;5093471;28;20130;-88
2022/09/26 07:18:44;;;;;;;7.90;3.40;;;;;;;18.75;57.30;99946.25;5112328;28;20112;-77
2022/09/26 07:21:10;;;;;;;7.78;2.90;;;;;;;18.75;57.20;99936.72;5073269;28;20128;-77
2022/09/26 07:23:35;;;;;;;8.20;3.30;;;;;;;18.75;57.58;99939.31;5076982;28;20047;-77
2022/09/26 07:26:01;;;;;;;8.32;3.10;;;;;;;18.75;57.40;99935.84;5090596;28;20533;-77
2022/09/26 07:28:28;;;;;;;8.32;3.17;;;;;;;18.75;57.17;99933.22;5073254;28;20055;-77
2022/09/26 07:30:58;;;;;;;9.32;3.15;;;;;;;18.74;57.38;99927.16;5090360;28;20046;-77
2022/09/26 07:33:24;;;;;;;5.72;2.97;;;;;;;18.75;57.21;99936.72;5059087;28;20504;-77
2022/09/26 07:35:49;;;;;;;7.80;2.85;;;;;;;18.74;57.32;99942.81;5074593;28;20055;-78
2022/09/26 07:38:15;;;;;;;9.30;2.78;;;;;;;18.75;57.23;99941.06;5074285;28;20052;-77
2022/09/26 07:40:44;;;;;;;5.70;3.00;;;;;;;18.74;57.09;99940.19;5091780;28;20052;-77
2022/09/26 07:43:09;;;;;;;5.63;2.72;;;;;;;18.75;57.16;99939.31;5090243;28;20451;-77
2022/09/26 07:50:57;;;;;;;5.00;2.47;;;;;;;18.74;57.39;99935.00;5108616;28;20096;-77
2022/09/26 07:53:27;;;;;;;6.50;2.45;;;;;;;18.73;57.72;99930.69;5091926;28;20052;-78
2022/09/26 07:56:05;;;;;;;5.10;2.20;;;;;;;18.75;57.20;99928.00;5073988;28;20043;-79
2022/09/26 07:58:37;;;;;;;4.88;2.50;;;;;;;18.74;57.32;99929.78;5048156;28;20049;-79
2022/09/26 08:01:04;;;;;;;5.72;2.42;;;;;;;18.74;57.12;99929.78;5084740;28;20051;-76
2022/09/26 08:03:29;;;;;;;4.65;2.20;;;;;;;18.74;57.46;99923.72;5076459;28;20058;-89
2022/09/26 08:06:01;;;;;;;6.35;2.40;;;;;;;18.73;57.14;99920.25;5110860;28;20055;-89
2022/09/26 08:08:29;;;;;;;4.07;2.17;;;;;;;18.75;56.85;99920.19;5113981;28;20123;-89
2022/09/26 08:10:56;;;;;;;5.30;2.38;;;;;;;18.72;56.97;99900.31;5093095;28;20100;-90
2022/09/26 08:13:26;;;;;;;4.72;2.20;;;;;;;18.74;57.10;99906.31;5116515;28;20062;-83
2022/09/26 08:15:52;;;;;;;5.15;2.42;;;;;;;18.75;57.12;99901.97;5092877;28;20059;-89
2022/09/26 08:18:19;;;;;;;4.78;2.47;;;;;;;18.75;57.28;99904.56;5092000;28;20075;-79
2022/09/26 08:20:46;;;;;;;3.78;1.95;;;;;;;18.74;56.86;99897.66;5093720;28;20035;-78
2022/09/26 08:23:16;;;;;;;4.82;2.10;;;;;;;18.74;57.21;99890.69;5077326;28;20044;-78
2022/09/26 08:25:44;;;;;;;4.63;2.17;;;;;;;18.75;56.88;99888.91;5079713;28;20074;-78
2022/09/26 08:28:17;;;;;;;4.45;2.20;;;;;;;18.75;56.54;99884.59;5093262;28;20055;-77
2022/09/26 08:30:44;;;;;;;4.40;2.10;;;;;;;18.74;57.06;99887.22;5095451;28;20028;-78
2022/09/26 08:33:11;;;;;;;4.63;2.00;;;;;;;18.75;57.00;99879.38;5060105;28;20112;-78
2022/09/26 08:35:40;;;;;;;4.15;2.03;;;;;;;18.74;56.94;99867.22;5095828;28;20035;-78
2022/09/26 08:38:07;;;;;;;4.45;2.03;;;;;;;18.76;56.96;99870.66;5093047;28;20052;-78
2022/09/26 08:43:29;;;;;;;3.40;1.90;;;;;;;18.77;56.82;99861.94;5087045;28;20081;-78
2022/09/26 08:49:21;;;;;;;4.85;1.95;;;;;;;18.77;56.87;99864.53;5111281;28;20103;-78
2022/09/26 08:54:32;;;;;;;4.13;1.70;;;;;;;18.76;56.87;99838.53;5111035;28;20043;-78
2022/09/26 08:57:04;;;;;;;4.72;1.80;;;;;;;18.75;56.97;99835.06;5111731;28;20055;-78
2022/09/26 09:02:24;;;;;;;4.03;1.95;;;;;;;18.75;56.69;99829.84;5102848;28;20059;-78
2022/09/26 09:05:05;;;;;;;4.28;1.80;;;;;;;18.77;56.85;99824.56;5112253;28;20456;-78
2022/09/26 09:07:31;;;;;;;5.80;1.92;;;;;;;18.76;56.67;99822.88;5094104;28;20066;-78
2022/09/26 09:10:01;;;;;;;3.70;1.75;;;;;;;18.76;56.92;99823.72;5111176;28;20505;-78
2022/09/26 09:15:41;;;;;;;3.28;1.80;;;;;;;18.75;56.66;99836.78;5094493;28;20086;-78
2022/09/26 09:18:33;;;;;;;3.38;1.70;;;;;;;18.76;56.67;99841.97;5091539;28;20064;-78
2022/09/26 09:21:43;;;;;;;3.88;1.80;;;;;;;18.74;56.63;99835.94;5092422;28;20043;-78
2022/09/26 09:24:42;;;;;;;2.95;1.60;;;;;;;18.75;57.00;99839.41;5091561;28;20109;-78
2022/09/26 09:27:29;;;;;;;3.17;1.70;;;;;;;18.74;56.76;99827.28;5092391;28;20120;-78
2022/09/26 09:30:07;;;;;;;4.05;2.03;;;;;;;18.74;56.65;99828.13;5111075;28;20049;-78
2022/09/26 09:35:16;;;;;;;3.42;1.65;;;;;;;18.73;56.70;99836.00;5110669;28;20082;-78
2022/09/26 09:40:44;;;;;;;3.47;1.60;;;;;;;18.74;56.59;99833.34;5102750;28;20051;-78
2022/09/26 09:43:25;;;;;;;3.78;1.70;;;;;;;18.74;56.61;99827.28;5090708;28;20481;-78
2022/09/26 09:46:04;;;;;;;3.65;1.67;;;;;;;18.73;56.50;99828.16;5092851;28;20100;-78
2022/09/26 09:48:29;;;;;;;2.95;1.42;;;;;;;18.74;56.76;99824.69;5111802;28;20039;-78
2022/09/26 09:51:23;;;;;;;2.55;1.27;;;;;;;18.73;56.69;99816.03;5092585;28;20040;-78
2022/09/26 09:54:15;;;;;;;2.70;1.20;;;;;;;18.73;56.50;99818.63;5093342;28;20051;-79
2022/09/26 09:59:39;;;;;;;3.30;1.60;;;;;;;18.73;56.70;99820.34;5110402;28;21235;-79
2022/09/26 10:02:29;;;;;;;2.25;1.20;;;;;;;18.73;56.55;99810.81;5110407;28;20039;-80
2022/09/26 10:05:34;;;;;;;3.20;1.40;;;;;;;18.73;56.53;99816.03;5110616;28;20047;-79
2022/09/26 10:07:59;;;;;;;;;;;;;;;18.74;56.47;99803.84;5087843;28;20044;-77
2022/09/26 10:13:14;;;;;;;3.80;1.30;;;;;;;18.74;56.30;99793.41;5102338;28;21727;-77
2022/09/26 10:18:21;;;;;;;2.40;1.20;;;;;;;18.74;56.30;99788.19;5084804;28;20057;-77
2022/09/26 10:23:28;;;;;;;2.45;1.08;;;;;;;18.73;56.44;99784.75;5085403;28;20405;-77
2022/09/26 10:25:59;;;;;;;2.28;1.48;;;;;;;18.75;56.51;99784.69;5092286;28;20047;-77
2022/09/26 10:28:32;;;;;;;2.78;1.50;;;;;;;18.75;56.53;99769.03;5112017;28;20047;-78
2022/09/26 10:31:05;;;;;;;3.67;1.25;;;;;;;18.75;56.49;99775.13;5091060;28;20050;-78
2022/09/26 10:33:34;;;;;;;3.30;1.25;;;;;;;18.77;56.35;99767.25;5093217;28;20043;-77
2022/09/26 10:36:07;;;;;;;2.75;1.20;;;;;;;18.78;56.42;99769.00;5091147;28;20039;-78
2022/09/26 10:40:43;;;;;;;2.13;1.10;;;;;;;18.80;56.38;99767.19;5067572;28;20052;-77
2022/09/26 10:41:22;;;;;;;2.47;1.10;;;;;;;18.79;56.31;99765.47;5089085;28;20402;-77
2022/09/26 10:43:56;;;;;;;2.67;1.30;;;;;;;18.80;56.63;99768.03;5089685;28;20038;-78
2022/09/26 10:46:22;;;;;;;;;;;;;;;18.81;56.48;99763.66;5077563;28;20436;-78
2022/09/26 10:48:54;;;;;;;2.92;1.20;;;;;;;18.80;56.48;99772.41;5064895;28;19923;-78
2022/09/26 10:51:28;;;;;;;2.53;1.15;;;;;;;18.81;56.48;99768.88;5092139;28;20051;-77
2022/09/26 10:54:12;;;;;;;2.05;1.05;;;;;;;18.81;56.25;99763.66;5091076;28;20058;-77
2022/09/26 10:56:45;;;;;;;2.47;1.38;;;;;;;18.79;56.08;99766.34;5051517;28;1198738;-78
2022/09/26 10:59:14;;;;;;;1.77;1.02;;;;;;;18.81;56.46;99766.28;5091409;28;20090;-78
2022/09/26 11:07:07;;;;;;;3.60;1.33;;;;;;;18.80;56.49;99767.19;5109397;28;20451;-77
2022/09/26 11:09:34;;;;;;;2.65;1.20;;;;;;;18.80;56.29;99761.97;5092933;28;20473;-77
2022/09/26 11:12:29;;;;;;;1.83;0.95;;;;;;;18.80;56.29;99770.66;5091141;28;20079;-77
2022/09/26 11:14:57;;;;;;;2.40;1.17;;;;;;;18.80;56.53;99760.22;5090970;28;20040;-78
2022/09/26 11:17:46;;;;;;;1.70;1.02;;;;;;;18.81;56.21;99761.06;5076112;28;20142;-78
2022/09/26 11:20:27;;;;;;;2.55;1.10;;;;;;;18.81;56.44;99764.50;5091029;28;20047;-77
2022/09/26 11:23:06;;;;;;;2.22;1.20;;;;;;;18.82;56.35;99761.03;5091645;28;20059;-78
2022/09/26 11:28:22;;;;;;;2.65;1.08;;;;;;;18.82;56.31;99768.00;5084957;28;20063;-78
2022/09/26 11:30:55;;;;;;;2.88;1.10;;;;;;;18.82;56.46;99763.63;5094206;28;20044;-78
2022/09/26 11:33:21;;;;;;;1.85;0.88;;;;;;;18.82;56.29;99760.19;5110988;28;20048;-77
2022/09/26 11:38:20;;;;;;;2.03;1.10;;;;;;;18.85;56.31;99757.47;5099214;28;20051;-77
2022/09/26 11:43:31;;;;;;;1.92;1.10;;;;;;;18.85;56.29;99754.84;5084524;28;20048;-77
2022/09/26 11:46:24;;;;;;;1.77;1.02;;;;;;;18.85;56.37;99757.47;5092907;28;20041;-77
2022/09/26 11:49:11;;;;;;;1.90;1.00;;;;;;;18.85;56.25;99749.66;5111297;28;20047;-77
2022/09/26 11:54:34;;;;;;;2.10;1.10;;;;;;;18.87;56.46;99753.06;5110309;28;20094;-77
2022/09/26 11:57:25;;;;;;;1.75;0.85;;;;;;;18.85;56.30;99750.50;5115892;28;20051;-78
2022/09/26 12:00:06;;;;;;;2.65;1.08;;;;;;;18.86;56.19;99751.38;5121590;28;20099;-77
2022/09/26 12:02:47;;;;;;;1.92;1.10;;;;;;;18.86;56.42;99753.97;5120935;28;20043;-77
2022/09/26 12:05:29;;;;;;;3.15;1.08;;;;;;;18.86;56.24;99751.38;5120061;28;20105;-77
2022/09/26 12:08:18;;;;;;;1.83;0.80;;;;;;;18.85;56.31;99757.47;5118733;28;20051;-77
2022/09/26 12:10:48;;;;;;;2.22;1.15;;;;;;;18.86;56.22;99759.19;5093694;28;20031;-78
2022/09/26 12:13:33;;;;;;;1.50;0.90;;;;;;;18.85;56.37;99762.69;5087545;28;20083;-77
2022/09/26 12:16:34;;;;;;;2.20;1.15;;;;;;;18.86;56.38;99756.56;5094906;28;20048;-78
2022/09/26 12:19:23;;;;;;;1.60;0.82;;;;;;;18.86;56.20;99760.03;5092502;28;20120;-77
2022/09/26 12:25:06;;;;;;;1.63;0.90;;;;;;;18.84;56.19;99740.97;5113438;28;20105;-77
2022/09/26 12:30:28;;;;;;;1.50;0.80;;;;;;;18.85;56.19;99739.22;5085594;28;20040;-78
2022/09/26 12:33:12;;;;;;;2.08;0.90;;;;;;;18.85;56.20;99742.66;5093044;28;20032;-77
2022/09/26 12:41:36;;;;;;;1.88;0.80;;;;;;;18.84;56.43;99743.59;5109441;28;21212;-78
2022/09/26 12:44:37;;;;;;;2.55;0.95;;;;;;;18.84;56.44;99727.09;5090837;28;20055;-77
2022/09/26 12:47:05;;;;;;;3.05;1.02;;;;;;;18.84;56.28;99725.34;5110370;28;20056;-78
2022/09/26 12:49:31;;;;;;;2.75;1.00;;;;;;;18.84;56.16;99720.13;5093913;28;20167;-77
2022/09/26 12:52:26;;;;;;;2.17;0.93;;;;;;;18.85;56.36;99713.16;5081157;28;20127;-77
2022/09/26 12:54:58;;;;;;;1.27;0.80;;;;;;;18.87;56.39;99712.19;5083051;28;20051;-78
2022/09/26 12:57:39;;;;;;;2.10;1.02;;;;;;;18.85;56.22;99708.78;5092896;28;20097;-77
2022/09/26 13:00:21;;;;;;;2.55;1.10;;;;;;;18.85;56.22;99708.78;5108975;28;20047;-77
2022/09/26 13:05:46;;;;;;;1.50;0.80;;;;;;;18.88;56.25;99705.25;5084151;28;20127;-78
2022/09/26 13:08:41;;;;;;;2.85;0.90;;;;;;;18.86;56.13;99705.28;5113309;28;20047;-77
2022/09/26 13:11:18;;;;;;;2.40;0.82;;;;;;;18.86;56.41;99701.84;5113858;28;20036;-77
2022/09/26 13:16:23;;;;;;;2.28;1.00;;;;;;;18.87;56.36;99693.09;5104715;28;20052;-78
2022/09/26 13:19:01;;;;;;;1.42;0.80;;;;;;;18.87;56.28;99699.16;5085956;28;20106;-77
2022/09/26 13:21:43;;;;;;;2.15;0.82;;;;;;;18.87;56.19;99695.72;5095333;28;20134;-79
2022/09/26 13:24:20;;;;;;;1.88;1.00;;;;;;;18.88;56.26;99689.59;5094207;28;20490;-78
2022/09/26 13:29:19;;;;;;;2.63;1.10;;;;;;;18.89;56.21;99692.13;5111675;28;21207;-77
2022/09/26 13:37:40;;;;;;;2.00;0.80;;;;;;;18.90;56.14;99673.00;5094605;28;20059;-77
2022/09/26 13:40:24;;;;;;;1.43;0.80;;;;;;;18.93;56.22;99679.03;5111431;28;20052;-77
2022/09/26 13:42:59;;;;;;;;;;;;;;;18.93;56.30;99679.03;5113316;28;20298;-77
2022/09/26 13:48:23;;;;;;;1.80;0.70;;;;;;;18.95;56.40;99692.88;5110688;28;20062;-77
2022/09/26 13:50:54;;;;;;;2.40;0.90;;;;;;;18.96;56.12;99681.50;5094597;28;20375;-78
2022/09/26 13:53:35;;;;;;;2.17;0.93;;;;;;;18.95;56.20;99678.06;5091482;28;20496;-77